Time;durP1;ratioP1;P1;durP2;ratioP2;P2;SDS_P1;SDS_P2;PMS_P1;PMS_P2;Temp;Humidity;BMP_temperature;BMP_pressure;BME280_temperature;BME280_humidity;BME280_pressure;Samples;Min_cycle;Max_cycle;Signal;HPM_P1;HPM_P2
2023/06/19 00:02:11;;;;;;;6.60;3.60;;;;;;;21.03;41.96;99167.53;81980;1299;3010785;-61
2023/06/19 00:04:37;;;;;;;7.00;3.30;;;;;;;21.02;41.92;99166.64;81953;1295;3011333;-61
2023/06/19 00:07:05;;;;;;;5.90;3.80;;;;;;;21.01;41.92;99161.05;80696;1295;3053287;-62
2023/06/19 00:09:32;;;;;;;6.30;3.60;;;;;;;20.99;42.23;99167.33;81930;1301;3012996;-61
2023/06/19 00:12:04;;;;;;;6.20;3.30;;;;;;;20.98;42.04;99161.33;81437;1295;3011272;-62
2023/06/19 00:14:30;;;;;;;7.40;3.10;;;;;;;20.95;42.37;99160.27;82023;1298;3013327;-62
2023/06/19 00:16:57;;;;;;;6.30;3.10;;;;;;;20.93;42.30;99157.02;81964;1295;3011693;-62
2023/06/19 00:19:25;;;;;;;9.90;3.00;;;;;;;20.94;42.23;99158.55;80687;1295;3056545;-60
2023/06/19 00:21:56;;;;;;;8.90;3.00;;;;;;;20.93;42.60;99160.27;81991;1295;3018402;-61
2023/06/19 00:24:24;;;;;;;4.90;3.30;;;;;;;20.90;42.85;99159.53;80717;1296;3051443;-62
2023/06/19 00:26:51;;;;;;;4.50;3.30;;;;;;;20.89;42.80;99158.04;81952;1299;3018599;-61
2023/06/19 00:29:17;;;;;;;5.20;3.00;;;;;;;20.87;42.89;99154.55;81884;1301;3011156;-61
2023/06/19 00:31:45;;;;;;;8.50;3.60;;;;;;;20.81;43.37;99155.56;80665;1295;3026129;-60
2023/06/19 00:34:12;;;;;;;8.20;3.20;;;;;;;20.80;43.14;99159.68;82011;1296;3018052;-62
2023/06/19 00:36:40;;;;;;;6.30;3.20;;;;;;;20.81;42.95;99154.28;81929;1296;3011442;-60
2023/06/19 00:39:08;;;;;;;14.50;3.40;;;;;;;20.78;43.37;99156.56;80714;1295;3049853;-61
2023/06/19 00:41:35;;;;;;;5.90;2.80;;;;;;;20.72;43.41;99156.52;81981;1301;3013311;-62
2023/06/19 00:44:02;;;;;;;6.20;2.90;;;;;;;20.68;43.51;99158.20;81952;1295;3011234;-61
2023/06/19 00:46:30;;;;;;;7.00;2.90;;;;;;;20.62;43.32;99157.86;80635;1295;3050826;-63
2023/06/19 00:48:57;;;;;;;9.70;3.30;;;;;;;20.60;43.33;99153.71;81918;1298;3018511;-60
2023/06/19 00:51:23;;;;;;;8.30;3.20;;;;;;;20.56;43.51;99155.29;81946;1295;3011348;-61
2023/06/19 00:53:51;;;;;;;7.20;2.70;;;;;;;20.54;43.62;99156.88;80713;1295;3025828;-62
2023/06/19 00:56:18;;;;;;;8.50;3.20;;;;;;;20.48;43.77;99160.27;81916;1298;3012630;-62
2023/06/19 00:58:44;;;;;;;7.00;3.40;;;;;;;20.49;43.61;99159.80;81895;1297;3011374;-62
2023/06/19 01:01:12;;;;;;;4.60;3.00;;;;;;;20.42;43.97;99158.92;80665;1295;3026028;-62
2023/06/19 01:03:40;;;;;;;4.10;3.00;;;;;;;20.39;43.94;99159.95;81949;1296;3011119;-63
2023/06/19 01:06:14;;;;;;;5.40;3.20;;;;;;;20.34;44.27;99158.59;81976;1295;3011271;-63
2023/06/19 01:08:51;;;;;;;4.70;3.00;;;;;;;20.31;44.27;99158.91;80701;1295;3050312;-62
2023/06/19 01:11:23;;;;;;;5.80;3.10;;;;;;;20.26;44.39;99159.89;81449;1295;3011570;-62
2023/06/19 01:14:01;;;;;;;4.90;2.80;;;;;;;20.22;44.54;99160.19;81885;1295;3011265;-63
2023/06/19 01:16:29;;;;;;;5.80;2.90;;;;;;;20.18;44.82;99162.98;80615;1298;3051802;-62
2023/06/19 01:18:56;;;;;;;9.90;3.10;;;;;;;20.16;44.56;99163.71;81884;1298;3012632;-63
2023/06/19 01:21:22;;;;;;;4.20;2.80;;;;;;;20.12;44.98;99159.14;81953;1295;3011199;-63
2023/06/19 01:23:50;;;;;;;6.00;3.20;;;;;;;20.09;44.84;99165.98;80736;1295;3025964;-62
2023/06/19 01:26:20;;;;;;;7.00;3.30;;;;;;;20.01;45.45;99162.96;82007;1295;3011233;-62
2023/06/19 01:28:49;;;;;;;8.80;3.60;;;;;;;19.97;45.49;99161.41;81378;1298;3011324;-62
2023/06/19 01:31:21;;;;;;;7.10;3.30;;;;;;;19.98;45.38;99165.95;82013;1299;3012565;-63
2023/06/19 01:33:49;;;;;;;9.80;3.50;;;;;;;19.95;45.80;99164.43;80674;1295;3067889;-63
2023/06/19 01:36:17;;;;;;;8.30;3.50;;;;;;;19.90;46.10;99168.34;81827;1295;3012851;-61
2023/06/19 01:38:44;;;;;;;6.30;3.30;;;;;;;19.84;46.31;99168.79;81996;1295;3011385;-62
2023/06/19 01:41:12;;;;;;;9.00;3.30;;;;;;;19.77;46.56;99172.34;80672;1295;3052384;-62
2023/06/19 01:43:41;;;;;;;5.50;3.00;;;;;;;19.71;46.63;99168.13;81933;1296;3011074;-63
2023/06/19 01:46:10;;;;;;;5.60;2.80;;;;;;;19.67;46.79;99170.68;81458;1298;3011303;-62
2023/06/19 01:48:38;;;;;;;4.10;2.80;;;;;;;19.64;47.08;99173.43;81971;1296;3011330;-61
2023/06/19 01:51:09;;;;;;;9.80;3.10;;;;;;;19.61;47.06;99169.86;81457;1295;3011677;-67
2023/06/19 01:53:38;;;;;;;4.60;3.00;;;;;;;19.58;47.36;99173.00;82007;1296;3011370;-64
2023/06/19 01:56:07;;;;;;;9.60;3.40;;;;;;;19.59;46.92;99172.71;81489;1295;3011416;-62
2023/06/19 01:58:33;;;;;;;8.80;3.00;;;;;;;19.56;47.45;99177.48;81951;1296;3013008;-61
2023/06/19 02:01:01;;;;;;;5.50;2.80;;;;;;;19.52;47.57;99175.83;81979;1295;3011898;-62
2023/06/19 02:03:29;;;;;;;10.60;3.00;;;;;;;19.48;47.46;99175.34;80731;1298;3025514;-62
2023/06/19 02:05:56;;;;;;;6.70;3.10;;;;;;;19.44;47.75;99177.63;81998;1295;3011371;-61
2023/06/19 02:08:22;;;;;;;4.20;2.70;;;;;;;19.45;47.38;99180.33;81934;1295;3011412;-63
2023/06/19 02:10:50;;;;;;;4.60;2.70;;;;;;;19.46;47.12;99177.47;80759;1295;3055862;-61
2023/06/19 02:13:16;;;;;;;6.50;2.80;;;;;;;19.47;47.18;99176.84;81981;1296;3012835;-62
2023/06/19 02:15:43;;;;;;;4.70;2.70;;;;;;;19.49;47.16;99178.05;81943;1299;3011400;-63
2023/06/19 02:18:14;;;;;;;8.30;2.80;;;;;;;19.51;47.25;99178.48;80767;1297;3050351;-62
2023/06/19 02:20:42;;;;;;;4.40;2.80;;;;;;;19.62;46.91;99177.38;82015;1296;3011259;-64
2023/06/19 02:23:08;;;;;;;6.30;2.40;;;;;;;19.68;46.71;99171.13;82003;1295;3011715;-62
2023/06/19 02:25:37;;;;;;;4.90;2.70;;;;;;;19.72;46.68;99177.40;80750;1295;3056367;-64
2023/06/19 02:28:03;;;;;;;4.30;2.30;;;;;;;19.74;46.55;99180.98;81997;1296;3018173;-63
2023/06/19 02:30:30;;;;;;;4.80;2.40;;;;;;;19.76;46.60;99182.92;81942;1295;3011158;-64
2023/06/19 02:32:58;;;;;;;5.40;2.30;;;;;;;19.78;46.24;99186.56;80713;1298;3026371;-63
2023/06/19 02:35:26;;;;;;;3.80;2.40;;;;;;;19.76;46.59;99188.04;82004;1296;3012824;-62
2023/06/19 02:37:57;;;;;;;4.60;2.50;;;;;;;19.73;46.74;99183.10;80746;1295;3050353;-62
2023/06/19 02:40:24;;;;;;;6.30;3.30;;;;;;;19.74;46.59;99184.67;82055;1295;3018065;-62
2023/06/19 02:42:50;;;;;;;4.20;2.30;;;;;;;19.76;46.50;99180.25;81963;1295;3011115;-64
2023/06/19 02:45:18;;;;;;;6.10;2.40;;;;;;;19.74;46.77;99180.23;80729;1295;3026503;-64
2023/06/19 02:47:45;;;;;;;10.00;2.70;;;;;;;19.76;46.65;99179.55;81998;1298;3012641;-63
2023/06/19 02:50:12;;;;;;;7.50;2.70;;;;;;;19.75;46.61;99185.65;81964;1297;3011414;-60
2023/06/19 02:52:39;;;;;;;7.30;2.70;;;;;;;19.73;47.02;99181.84;80716;1295;3025983;-63
2023/06/19 02:55:07;;;;;;;5.10;2.70;;;;;;;19.67;47.29;99179.73;81996;1295;3013088;-63
2023/06/19 02:57:33;;;;;;;5.90;2.40;;;;;;;19.72;47.05;99183.16;81956;1295;3011287;-63
2023/06/19 03:00:03;;;;;;;5.30;2.30;;;;;;;19.75;46.78;99179.42;80758;1295;3027487;-62
2023/06/19 03:02:29;;;;;;;9.50;2.60;;;;;;;19.78;46.81;99184.45;81952;1295;3011260;-62
2023/06/19 03:04:56;;;;;;;6.70;2.50;;;;;;;19.75;47.28;99184.61;82008;1295;3011479;-62
2023/06/19 03:07:28;;;;;;;3.90;2.40;;;;;;;19.77;47.19;99183.65;80723;1295;3051445;-60
2023/06/19 03:09:55;;;;;;;8.00;2.40;;;;;;;19.79;47.16;99180.08;81928;1295;3011251;-64
2023/06/19 03:12:23;;;;;;;5.60;2.30;;;;;;;19.83;46.91;99177.11;80694;1295;3026426;-62
2023/06/19 03:14:49;;;;;;;4.40;2.30;;;;;;;19.88;47.04;99170.20;81944;1295;3018359;-62
2023/06/19 03:17:16;;;;;;;9.40;2.70;;;;;;;19.82;47.26;99173.05;81937;1295;3011220;-61
2023/06/19 03:19:43;;;;;;;3.50;2.00;;;;;;;19.82;47.51;99176.58;80688;1298;3026745;-62
2023/06/19 03:22:10;;;;;;;4.00;2.40;;;;;;;19.85;47.26;99177.95;81991;1295;3013170;-63
2023/06/19 03:24:38;;;;;;;6.20;2.60;;;;;;;19.84;47.31;99180.20;81909;1295;3011257;-60
2023/06/19 03:27:17;;;;;;;5.20;2.10;;;;;;;19.85;47.22;99178.86;80721;1295;3047259;-61
2023/06/19 03:29:44;;;;;;;10.30;2.70;;;;;;;19.87;47.14;99178.43;81988;1295;3012627;-63
2023/06/19 03:32:13;;;;;;;4.80;1.90;;;;;;;19.94;46.82;99177.36;81956;1295;3011147;-62
2023/06/19 03:34:42;;;;;;;5.30;2.50;;;;;;;19.98;46.87;99179.02;80726;1298;3052545;-64
2023/06/19 03:37:09;;;;;;;10.20;2.00;;;;;;;19.97;46.95;99185.91;81950;1298;3012517;-61
2023/06/19 03:39:36;;;;;;;7.40;2.40;;;;;;;20.00;47.02;99186.48;81970;1295;3011384;-62
2023/06/19 03:42:07;;;;;;;5.60;2.20;;;;;;;20.00;47.10;99185.65;80698;1295;3048639;-63
2023/06/19 03:44:35;;;;;;;4.70;2.60;;;;;;;19.95;47.58;99187.70;81993;1295;3012563;-62
2023/06/19 03:47:01;;;;;;;6.60;2.50;;;;;;;19.94;47.39;99183.04;81960;1295;3011207;-63
2023/06/19 03:49:30;;;;;;;8.00;2.70;;;;;;;19.98;47.51;99184.91;80716;1298;3052153;-62
2023/06/19 03:51:56;;;;;;;6.80;2.40;;;;;;;19.95;47.69;99190.40;82000;1295;3018489;-62
2023/06/19 03:54:24;;;;;;;4.70;3.10;;;;;;;19.97;47.68;99187.41;81913;1298;3011297;-61
2023/06/19 03:56:52;;;;;;;5.70;2.70;;;;;;;19.97;47.57;99189.71;80766;1295;3049538;-64
2023/06/19 03:59:19;;;;;;;6.00;1.90;;;;;;;20.00;47.35;99190.92;81960;1295;3012620;-63
2023/06/19 04:01:45;;;;;;;5.80;2.30;;;;;;;20.05;47.02;99192.61;81932;1295;3011391;-63
2023/06/19 04:04:13;;;;;;;5.20;2.30;;;;;;;20.06;47.05;99188.67;80737;1300;3026306;-62
2023/06/19 04:06:40;;;;;;;5.60;2.50;;;;;;;20.08;46.81;99191.86;82041;1296;3012712;-61
2023/06/19 04:09:06;;;;;;;5.10;2.60;;;;;;;20.08;47.07;99198.27;81895;1298;3011216;-62
2023/06/19 04:11:34;;;;;;;4.00;2.20;;;;;;;20.09;47.22;99199.99;80739;1295;3048122;-64
2023/06/19 04:14:02;;;;;;;6.90;2.70;;;;;;;20.10;47.43;99197.52;81977;1295;3012908;-63
2023/06/19 04:16:30;;;;;;;11.70;2.40;;;;;;;20.12;47.69;99198.59;81957;1295;3011644;-63
2023/06/19 04:18:57;;;;;;;5.40;2.00;;;;;;;20.08;47.82;99198.74;78506;1298;5575890;-64
2023/06/19 04:21:24;;;;;;;7.30;2.10;;;;;;;20.08;48.20;99200.41;81973;1295;3012655;-64
2023/06/19 04:23:51;;;;;;;5.80;2.10;;;;;;;20.16;48.02;99203.70;81983;1295;3011157;-64
2023/06/19 04:26:19;;;;;;;6.60;2.40;;;;;;;20.22;47.84;99208.09;80713;1295;3026379;-63
2023/06/19 04:28:45;;;;;;;4.60;2.40;;;;;;;20.28;47.73;99211.33;81960;1295;3012552;-63
2023/06/19 04:31:12;;;;;;;6.00;2.70;;;;;;;20.32;47.70;99210.34;81972;1295;3011150;-62
2023/06/19 04:33:41;;;;;;;5.10;2.40;;;;;;;20.32;47.88;99213.43;80744;1295;3026541;-63
2023/06/19 04:36:09;;;;;;;5.70;2.10;;;;;;;20.35;47.95;99213.20;81961;1297;3011478;-63
2023/06/19 04:38:38;;;;;;;6.70;2.50;;;;;;;20.40;47.85;99212.02;81485;1295;3011384;-62
2023/06/19 04:41:05;;;;;;;5.40;2.50;;;;;;;20.44;47.93;99211.02;82039;1295;3012560;-63
2023/06/19 04:43:33;;;;;;;8.70;2.40;;;;;;;20.46;47.87;99213.91;82010;1295;3011372;-61
2023/06/19 04:46:03;;;;;;;3.90;2.10;;;;;;;20.53;47.53;99220.23;80711;1295;3048935;-62
2023/06/19 04:48:30;;;;;;;5.30;2.30;;;;;;;20.63;47.16;99217.04;81990;1295;3012999;-63
2023/06/19 04:50:57;;;;;;;5.80;2.20;;;;;;;20.67;46.89;99217.23;82017;1295;3011308;-63
2023/06/19 04:53:25;;;;;;;7.50;2.30;;;;;;;20.67;47.19;99221.06;80744;1295;3050985;-65
2023/06/19 04:55:54;;;;;;;6.00;2.50;;;;;;;20.71;47.36;99220.45;82035;1295;3018619;-64
2023/06/19 04:58:24;;;;;;;5.90;2.40;;;;;;;20.75;47.84;99222.69;81443;1295;3011635;-63
2023/06/19 05:00:51;;;;;;;7.90;2.30;;;;;;;20.81;47.78;99222.66;81991;1295;3012634;-62
2023/06/19 05:03:18;;;;;;;4.30;1.90;;;;;;;20.87;47.88;99219.67;82019;1295;3011157;-60
2023/06/19 05:05:45;;;;;;;6.60;2.40;;;;;;;20.99;47.46;99221.31;80694;1297;3026523;-62
2023/06/19 05:08:12;;;;;;;4.20;2.20;;;;;;;21.06;47.38;99226.85;81984;1295;3013196;-63
2023/06/19 05:10:39;;;;;;;5.60;2.40;;;;;;;21.12;47.35;99229.30;81934;1296;3011319;-61
2023/06/19 05:13:07;;;;;;;4.70;2.20;;;;;;;21.16;46.96;99234.51;80713;1295;3049317;-64
2023/06/19 05:15:34;;;;;;;6.50;2.30;;;;;;;21.26;46.68;99233.42;81956;1300;3011300;-64
2023/06/19 05:18:00;;;;;;;5.00;2.20;;;;;;;21.29;47.02;99235.30;81940;1295;3011105;-62
2023/06/19 05:20:28;;;;;;;6.90;2.20;;;;;;;21.35;47.07;99240.00;80690;1297;3026403;-65
2023/06/19 05:22:54;;;;;;;7.20;2.10;;;;;;;21.41;46.80;99246.95;81968;1295;3017844;-64
2023/06/19 05:25:22;;;;;;;7.20;2.40;;;;;;;21.48;46.46;99244.21;81954;1295;3011640;-62
2023/06/19 05:27:49;;;;;;;4.10;1.90;;;;;;;21.57;46.42;99244.58;80703;1295;3048579;-63
2023/06/19 05:30:16;;;;;;;3.90;2.20;;;;;;;21.63;46.18;99249.58;81974;1295;3018821;-63
2023/06/19 05:32:42;;;;;;;7.50;2.10;;;;;;;21.69;46.13;99251.03;81950;1295;3011247;-62
2023/06/19 05:35:10;;;;;;;8.30;2.00;;;;;;;21.74;46.11;99255.91;80700;1295;3026682;-63
2023/06/19 05:37:38;;;;;;;5.10;2.20;;;;;;;21.81;46.36;99255.09;81967;1295;3018346;-63
2023/06/19 05:40:06;;;;;;;6.90;2.40;;;;;;;21.91;45.99;99254.34;81979;1295;3011397;-63
2023/06/19 05:43:46;;;;;;;8.30;1.90;;;;;;;22.04;45.53;99255.95;80055;1305;3011915;-62
2023/06/19 05:46:13;;;;;;;6.10;2.40;;;;;;;22.10;45.60;99255.02;79167;1300;3012929;-64
2023/06/19 05:48:40;;;;;;;7.90;2.40;;;;;;;22.18;45.34;99257.77;79052;1303;3011658;-64
2023/06/19 05:51:07;;;;;;;4.90;1.80;;;;;;;22.20;45.46;99255.23;77936;1301;3026249;-66
2023/06/19 05:53:34;;;;;;;5.80;2.20;;;;;;;22.31;45.52;99251.13;79342;1302;3013751;-62
2023/06/19 05:56:01;;;;;;;8.60;2.60;;;;;;;22.34;45.50;99257.69;77514;1302;3011649;-64
2023/06/19 05:58:29;;;;;;;4.50;2.10;;;;;;;22.37;45.03;99255.95;78043;1295;3025785;-63
2023/06/19 06:00:58;;;;;;;10.30;2.20;;;;;;;22.45;44.89;99251.33;79373;1296;3013025;-63
2023/06/19 06:03:30;;;;;;;4.70;1.70;;;;;;;22.53;44.33;99254.14;79135;1298;3014451;-63
2023/06/19 06:06:02;;;;;;;9.70;2.00;;;;;;;22.61;44.41;99249.70;79767;1300;3013050;-63
2023/06/19 06:08:30;;;;;;;4.70;1.80;;;;;;;22.71;43.81;99250.38;78423;1299;3052980;-64
2023/06/19 06:10:57;;;;;;;6.60;2.00;;;;;;;22.76;43.57;99247.73;79304;1297;3015914;-63
2023/06/19 06:13:24;;;;;;;5.30;1.90;;;;;;;22.81;43.59;99244.90;79322;1299;3011928;-61
2023/06/19 06:15:52;;;;;;;10.20;2.00;;;;;;;22.90;43.18;99242.81;78172;1299;3026003;-64
2023/06/19 06:18:19;;;;;;;6.80;2.10;;;;;;;22.94;43.34;99241.46;79404;1298;3013892;-62
2023/06/19 06:20:45;;;;;;;4.80;1.70;;;;;;;23.00;42.73;99237.92;79633;1298;3011715;-60
2023/06/19 06:23:14;;;;;;;6.40;1.90;;;;;;;23.09;42.80;99240.09;78076;1297;3028366;-62
2023/06/19 06:25:40;;;;;;;7.60;2.00;;;;;;;23.19;42.59;99231.81;79409;1298;3013974;-63
2023/06/19 06:28:07;;;;;;;5.80;1.90;;;;;;;23.25;42.30;99229.60;79404;1299;3013109;-63
2023/06/19 06:30:35;;;;;;;10.20;2.10;;;;;;;23.30;42.56;99227.70;78039;1298;3028705;-62
2023/06/19 06:33:02;;;;;;;7.20;1.80;;;;;;;23.37;41.97;99228.06;79262;1294;3013497;-64
2023/06/19 06:35:29;;;;;;;8.10;1.90;;;;;;;23.43;41.36;99228.47;79335;1299;3012004;-63
2023/06/19 06:37:56;;;;;;;4.80;1.80;;;;;;;23.47;41.65;99233.34;78138;1297;3028526;-62
2023/06/19 06:40:23;;;;;;;5.80;1.80;;;;;;;23.53;41.75;99231.57;79370;1299;3012837;-61
2023/06/19 06:42:49;;;;;;;3.50;1.60;;;;;;;23.65;40.63;99227.29;79311;1294;3011915;-63
2023/06/19 06:45:18;;;;;;;5.00;1.80;;;;;;;23.69;39.59;99223.69;78390;1299;3028612;-64
2023/06/19 06:47:45;;;;;;;7.60;2.00;;;;;;;23.73;38.50;99225.05;79594;1296;3013937;-64
2023/06/19 06:50:12;;;;;;;4.00;1.90;;;;;;;23.78;38.73;99227.67;79308;1295;3011841;-63
2023/06/19 06:52:40;;;;;;;6.10;1.90;;;;;;;23.88;38.39;99232.08;78148;1297;3052661;-63
2023/06/19 06:55:07;;;;;;;4.30;1.90;;;;;;;23.95;38.14;99230.97;79525;1296;3013577;-63
2023/06/19 06:57:34;;;;;;;5.50;1.60;;;;;;;23.94;38.38;99233.27;79413;1298;3011855;-64
2023/06/19 07:00:03;;;;;;;6.80;1.90;;;;;;;23.97;37.77;99232.25;78152;1297;3028265;-65
2023/06/19 07:02:31;;;;;;;3.90;1.80;;;;;;;24.07;37.94;99232.48;79493;1299;3011543;-64
2023/06/19 07:04:59;;;;;;;5.30;1.80;;;;;;;24.13;36.91;99228.10;78682;1300;3012891;-64
2023/06/19 07:07:26;;;;;;;8.50;1.50;;;;;;;24.19;36.87;99227.80;79319;1300;3013533;-63
2023/06/19 07:09:52;;;;;;;6.90;2.00;;;;;;;24.25;36.87;99234.97;79181;1297;3011613;-64
2023/06/19 07:12:20;;;;;;;4.90;1.70;;;;;;;24.27;36.49;99230.02;78135;1295;3027847;-64
2023/06/19 07:14:47;;;;;;;4.80;1.70;;;;;;;24.31;36.54;99228.67;79266;1299;3019325;-62
2023/06/19 07:17:13;;;;;;;7.60;1.70;;;;;;;24.43;36.16;99226.11;79202;1299;3011612;-62
2023/06/19 07:19:41;;;;;;;4.70;1.60;;;;;;;24.45;35.03;99228.69;78228;1299;3026579;-61
2023/06/19 07:22:08;;;;;;;7.00;1.70;;;;;;;24.45;34.54;99224.05;79250;1300;3013430;-64
2023/06/19 07:24:35;;;;;;;7.00;1.60;;;;;;;24.50;34.40;99222.79;79247;1300;3013015;-62
2023/06/19 07:27:03;;;;;;;4.80;1.70;;;;;;;24.60;34.52;99215.27;78119;1297;3028436;-62
2023/06/19 07:29:29;;;;;;;4.40;1.60;;;;;;;24.65;34.21;99217.13;79550;1297;3013263;-62
2023/06/19 07:31:56;;;;;;;3.60;1.50;;;;;;;24.67;33.62;99216.52;79231;1300;3011684;-63
2023/06/19 07:34:25;;;;;;;7.10;1.60;;;;;;;24.81;33.57;99221.66;78055;1300;3027582;-61
2023/06/19 07:36:51;;;;;;;4.60;1.70;;;;;;;24.93;33.81;99223.05;79352;1300;3014007;-62
2023/06/19 07:39:18;;;;;;;5.50;1.50;;;;;;;24.98;34.52;99221.89;79252;1299;3012043;-65
2023/06/19 07:41:46;;;;;;;4.60;1.70;;;;;;;25.00;35.19;99218.16;78085;1299;3051359;-62
2023/06/19 07:44:13;;;;;;;5.00;1.60;;;;;;;25.09;35.07;99219.73;79208;1296;3021303;-63
2023/06/19 07:46:40;;;;;;;8.90;1.60;;;;;;;25.08;35.03;99220.49;79510;1295;3013609;-66
2023/06/19 07:49:08;;;;;;;3.70;1.50;;;;;;;25.12;34.97;99219.54;78042;1300;3025948;-63
2023/06/19 07:51:34;;;;;;;12.80;2.00;;;;;;;25.24;34.44;99221.26;79243;1300;3013064;-65
2023/06/19 07:54:01;;;;;;;5.50;1.70;;;;;;;25.24;34.15;99216.25;79288;1300;3011951;-65
2023/06/19 07:56:30;;;;;;;2.60;1.40;;;;;;;25.28;34.28;99216.83;78109;1300;3050096;-64
2023/06/19 07:58:57;;;;;;;3.20;1.40;;;;;;;25.32;34.32;99218.00;79620;1299;3012962;-64
2023/06/19 08:01:23;;;;;;;4.90;1.70;;;;;;;25.40;34.16;99218.84;79700;1297;3013122;-63
2023/06/19 08:03:52;;;;;;;3.00;1.30;;;;;;;25.52;33.61;99221.61;78409;1300;3026339;-65
2023/06/19 08:06:19;;;;;;;3.70;1.20;;;;;;;25.58;33.55;99219.13;79654;1296;3013577;-65
2023/06/19 08:08:46;;;;;;;3.20;1.50;;;;;;;25.64;33.67;99215.15;79810;1295;3012955;-66
2023/06/19 08:11:14;;;;;;;4.30;1.50;;;;;;;25.70;33.64;99216.73;78234;1300;3049779;-65
2023/06/19 08:13:41;;;;;;;4.20;1.70;;;;;;;25.76;33.02;99216.83;79452;1297;3013766;-65
2023/06/19 08:16:08;;;;;;;4.80;1.30;;;;;;;25.84;33.23;99217.02;79386;1298;3011848;-63
2023/06/19 08:18:37;;;;;;;6.10;1.60;;;;;;;25.90;33.44;99217.91;78245;1297;3049390;-67
2023/06/19 08:21:28;;;;;;;6.40;1.30;;;;;;;25.97;32.67;99216.33;79594;1297;3011439;-64
2023/06/19 08:23:56;;;;;;;2.40;1.30;;;;;;;26.01;32.57;99219.05;78615;1300;3070772;-62
2023/06/19 08:26:23;;;;;;;6.50;1.60;;;;;;;26.10;32.46;99222.60;79540;1297;3013778;-63
2023/06/19 08:28:50;;;;;;;2.90;1.20;;;;;;;26.17;32.51;99223.13;79608;1300;3013235;-63
2023/06/19 08:31:18;;;;;;;3.00;1.60;;;;;;;26.26;32.62;99222.23;78221;1300;3052838;-64
2023/06/19 08:33:48;;;;;;;4.40;1.40;;;;;;;26.34;32.63;99222.65;79367;1300;3013642;-62
2023/06/19 08:36:17;;;;;;;3.40;1.90;;;;;;;26.32;32.14;99222.64;79058;1297;3011543;-61
2023/06/19 08:38:44;;;;;;;4.00;1.80;;;;;;;26.26;30.98;99221.91;79551;1300;3011773;-64
2023/06/19 08:41:12;;;;;;;5.80;1.90;;;;;;;26.34;30.84;99225.88;79699;1298;3011889;-63
2023/06/19 08:43:41;;;;;;;5.40;1.60;;;;;;;26.45;31.02;99223.17;78271;1295;3056305;-63
2023/06/19 08:46:13;;;;;;;3.60;1.70;;;;;;;26.49;30.99;99220.16;79374;1295;3012934;-63
2023/06/19 08:48:41;;;;;;;3.50;1.70;;;;;;;26.59;30.84;99226.10;78125;1300;3050854;-64
2023/06/19 08:51:08;;;;;;;4.20;1.50;;;;;;;26.61;31.21;99227.95;79546;1300;3013957;-62
2023/06/19 08:53:36;;;;;;;3.90;1.60;;;;;;;26.67;31.75;99225.94;79697;1297;3013002;-63
2023/06/19 08:56:08;;;;;;;5.00;1.90;;;;;;;26.68;31.83;99229.05;78364;1300;3050869;-60
2023/06/19 08:58:36;;;;;;;4.80;1.70;;;;;;;26.77;31.26;99232.86;79724;1295;3013871;-63
2023/06/19 09:01:03;;;;;;;5.00;1.50;;;;;;;26.81;30.71;99238.25;79808;1296;3012879;-63
2023/06/19 09:03:31;;;;;;;8.00;1.50;;;;;;;26.87;31.06;99230.64;78501;1296;3050690;-61
2023/06/19 09:06:03;;;;;;;3.50;1.70;;;;;;;26.92;31.17;99230.86;79336;1300;3012983;-63
2023/06/19 09:08:31;;;;;;;5.40;1.40;;;;;;;26.99;30.73;99231.58;78129;1298;3068976;-64
2023/06/19 09:10:58;;;;;;;3.60;1.60;;;;;;;27.05;30.96;99232.40;79242;1300;3012998;-63
2023/06/19 09:13:25;;;;;;;2.50;1.30;;;;;;;27.08;30.54;99228.80;79557;1295;3014008;-63
2023/06/19 09:15:59;;;;;;;3.90;1.80;;;;;;;27.05;30.60;99226.26;78156;1297;3054083;-64
2023/06/19 09:18:26;;;;;;;3.30;1.50;;;;;;;27.13;30.20;99220.70;79259;1297;3013097;-63
2023/06/19 09:20:54;;;;;;;5.70;1.80;;;;;;;27.22;30.01;99221.70;78217;1297;3026015;-66
2023/06/19 09:23:21;;;;;;;4.60;1.60;;;;;;;27.35;30.15;99218.97;79320;1300;3013483;-63
2023/06/19 09:25:54;;;;;;;4.40;1.50;;;;;;;27.45;29.82;99214.58;78974;1296;3011649;-63
2023/06/19 09:28:22;;;;;;;2.90;1.40;;;;;;;27.57;29.05;99210.54;79674;1298;3011571;-64
2023/06/19 09:30:57;;;;;;;4.30;1.80;;;;;;;27.66;28.97;99209.95;78507;1295;3026653;-63
2023/06/19 09:33:27;;;;;;;5.20;1.60;;;;;;;27.61;28.93;99210.31;79113;1297;3011405;-66
2023/06/19 09:35:55;;;;;;;4.80;1.70;;;;;;;27.64;29.29;99206.29;79613;1297;3013908;-64
2023/06/19 09:38:24;;;;;;;3.90;1.60;;;;;;;27.73;28.29;99210.46;79921;1295;3011464;-64
2023/06/19 09:40:52;;;;;;;5.80;2.00;;;;;;;27.81;27.74;99213.34;78532;1300;3053319;-64
2023/06/19 09:43:26;;;;;;;4.60;1.80;;;;;;;27.78;27.82;99209.95;79556;1300;3013021;-65
2023/06/19 09:45:54;;;;;;;4.60;1.70;;;;;;;27.82;26.25;99206.58;78187;1296;3050066;-65
2023/06/19 09:48:25;;;;;;;4.20;2.00;;;;;;;27.86;27.10;99207.44;80105;1297;3012912;-62
2023/06/19 09:50:55;;;;;;;3.30;1.70;;;;;;;27.91;27.38;99205.77;78251;1297;3053472;-63
2023/06/19 09:53:23;;;;;;;4.70;1.80;;;;;;;28.11;27.36;99204.55;79796;1300;3013293;-66
2023/06/19 09:55:52;;;;;;;1.90;1.60;;;;;;;28.24;27.32;99203.41;79719;1297;3011891;-63
2023/06/19 09:58:20;;;;;;;4.00;1.90;;;;;;;28.36;27.03;99202.53;78378;1297;3069862;-64
2023/06/19 10:00:49;;;;;;;3.50;1.90;;;;;;;28.41;27.21;99199.63;79490;1297;3013052;-63
2023/06/19 10:03:16;;;;;;;3.80;1.90;;;;;;;28.44;26.87;99200.11;79789;1296;3011586;-63
2023/06/19 10:05:44;;;;;;;5.00;1.80;;;;;;;28.55;26.49;99194.48;78237;1299;3053027;-61
2023/06/19 10:08:11;;;;;;;2.80;1.90;;;;;;;28.57;26.73;99193.59;79582;1297;3013167;-63
2023/06/19 10:10:48;;;;;;;5.30;2.20;;;;;;;28.53;26.51;99192.50;79393;1300;3013237;-63
2023/06/19 10:13:16;;;;;;;4.40;1.90;;;;;;;28.68;26.21;99191.98;78081;1300;3068798;-62
2023/06/19 10:15:44;;;;;;;6.00;1.80;;;;;;;28.76;25.84;99187.14;79554;1297;3018994;-61
2023/06/19 10:18:18;;;;;;;4.30;2.30;;;;;;;28.81;25.82;99188.14;79356;1296;3013148;-62
2023/06/19 10:20:46;;;;;;;5.00;2.10;;;;;;;28.86;24.93;99190.48;78338;1297;3052696;-64
2023/06/19 10:23:18;;;;;;;4.60;2.00;;;;;;;28.95;24.87;99193.98;79729;1296;3012992;-63
2023/06/19 10:25:48;;;;;;;3.70;2.30;;;;;;;28.96;24.72;99190.61;78100;1300;3052444;-61
2023/06/19 10:28:30;;;;;;;4.20;2.40;;;;;;;29.04;24.51;99191.88;79667;1300;3013049;-61
2023/06/19 10:30:58;;;;;;;;;;;;;;;29.10;24.52;99188.12;78429;1300;3056762;-63
2023/06/19 10:33:27;;;;;;;4.90;2.10;;;;;;;29.21;24.35;99181.29;79381;1298;3013784;-61
2023/06/19 10:35:53;;;;;;;3.10;2.20;;;;;;;29.24;24.24;99186.11;79450;1296;3011866;-64
2023/06/19 10:38:22;;;;;;;2.60;1.80;;;;;;;29.30;24.35;99182.61;78423;1300;3053141;-63
2023/06/19 10:40:48;;;;;;;4.20;2.30;;;;;;;29.37;24.57;99181.84;79395;1297;3019079;-62
2023/06/19 10:43:24;;;;;;;5.00;2.30;;;;;;;29.36;24.69;99179.10;79372;1297;3013163;-64
2023/06/19 10:45:52;;;;;;;3.70;1.90;;;;;;;29.42;24.76;99171.39;78260;1297;3056295;-63
2023/06/19 10:48:23;;;;;;;6.10;2.30;;;;;;;29.40;24.55;99171.23;79871;1297;3012779;-62
2023/06/19 10:50:51;;;;;;;4.30;2.10;;;;;;;29.32;24.76;99175.38;78385;1295;3050069;-62
2023/06/19 10:53:24;;;;;;;3.10;2.00;;;;;;;29.45;25.02;99176.67;79670;1300;3013468;-61
2023/06/19 10:55:59;;;;;;;;;;;;;;;29.42;24.86;99171.52;78585;1299;3069114;-63
2023/06/19 10:58:28;;;;;;;4.40;1.90;;;;;;;29.54;24.94;99165.92;79247;1297;3011627;-60
2023/06/19 11:00:55;;;;;;;3.60;1.80;;;;;;;29.68;24.68;99162.98;79753;1297;3013191;-61
2023/06/19 11:03:22;;;;;;;4.40;2.10;;;;;;;29.69;24.98;99160.41;79720;1296;3011263;-63
2023/06/19 11:05:50;;;;;;;4.30;2.30;;;;;;;29.80;24.58;99160.45;78406;1296;3052814;-63
2023/06/19 11:08:21;;;;;;;4.00;2.10;;;;;;;29.96;24.00;99159.64;79490;1297;3013085;-64
2023/06/19 11:10:49;;;;;;;3.90;2.30;;;;;;;29.92;24.07;99157.19;78398;1297;3053267;-60
2023/06/19 11:13:18;;;;;;;2.10;1.80;;;;;;;30.03;24.41;99164.09;79307;1295;3014830;-62
2023/06/19 11:15:44;;;;;;;4.20;1.70;;;;;;;30.21;24.25;99162.77;79393;1298;3011640;-62
2023/06/19 11:18:14;;;;;;;7.10;1.80;;;;;;;30.26;24.24;99160.08;78395;1297;3048872;-62
2023/06/19 11:20:44;;;;;;;6.60;2.10;;;;;;;30.21;24.76;99157.02;79528;1298;3013450;-63
2023/06/19 11:23:12;;;;;;;3.60;2.10;;;;;;;30.24;24.80;99155.68;78401;1297;3050649;-62